sensor_id;sensor_type;location;lat;lon;timestamp;P1;durP1;ratioP1;P2;durP2;ratioP2
2884;SDS011;54691;48.262;11.586;2023-06-05T00:02:47;8.53;;;3.62;;
2884;SDS011;54691;48.262;11.586;2023-06-05T00:09:44;5.35;;;2.92;;
2884;SDS011;54691;48.262;11.586;2023-06-05T00:16:41;10.50;;;3.60;;
2884;SDS011;54691;48.262;11.586;2023-06-05T00:23:38;7.78;;;3.67;;
2884;SDS011;54691;48.262;11.586;2023-06-05T00:30:35;5.53;;;3.50;;
2884;SDS011;54691;48.262;11.586;2023-06-05T00:37:35;6.17;;;4.10;;
2884;SDS011;54691;48.262;11.586;2023-06-05T00:44:35;10.35;;;4.72;;
2884;SDS011;54691;48.262;11.586;2023-06-05T00:51:32;9.55;;;4.90;;
2884;SDS011;54691;48.262;11.586;2023-06-05T00:58:30;12.25;;;5.20;;
2884;SDS011;54691;48.262;11.586;2023-06-05T01:05:29;12.33;;;3.95;;
2884;SDS011;54691;48.262;11.586;2023-06-05T01:12:28;9.15;;;4.78;;
2884;SDS011;54691;48.262;11.586;2023-06-05T01:19:25;10.08;;;4.33;;
2884;SDS011;54691;48.262;11.586;2023-06-05T01:26:27;18.65;;;5.90;;
2884;SDS011;54691;48.262;11.586;2023-06-05T01:33:30;10.63;;;4.15;;
2884;SDS011;54691;48.262;11.586;2023-06-05T01:37:01;10.00;;;5.10;;
2884;SDS011;54691;48.262;11.586;2023-06-05T01:43:59;8.78;;;4.25;;
2884;SDS011;54691;48.262;11.586;2023-06-05T01:50:57;13.60;;;4.95;;
2884;SDS011;54691;48.262;11.586;2023-06-05T01:57:56;10.10;;;4.25;;
2884;SDS011;54691;48.262;11.586;2023-06-05T02:04:55;8.18;;;4.35;;
2884;SDS011;54691;48.262;11.586;2023-06-05T02:11:55;8.98;;;4.47;;
2884;SDS011;54691;48.262;11.586;2023-06-05T02:18:53;6.83;;;4.30;;
2884;SDS011;54691;48.262;11.586;2023-06-05T02:25:51;9.48;;;5.47;;
2884;SDS011;54691;48.262;11.586;2023-06-05T02:32:49;11.85;;;5.83;;
2884;SDS011;54691;48.262;11.586;2023-06-05T02:39:48;10.40;;;4.85;;
2884;SDS011;54691;48.262;11.586;2023-06-05T02:50:22;11.43;;;5.35;;
2884;SDS011;54691;48.262;11.586;2023-06-05T02:57:19;11.18;;;5.30;;
2884;SDS011;54691;48.262;11.586;2023-06-05T03:04:18;13.43;;;5.80;;
2884;SDS011;54691;48.262;11.586;2023-06-05T03:11:16;8.35;;;5.20;;
2884;SDS011;54691;48.262;11.586;2023-06-05T03:18:13;8.25;;;5.50;;
2884;SDS011;54691;48.262;11.586;2023-06-05T03:25:11;9.80;;;5.78;;
2884;SDS011;54691;48.262;11.586;2023-06-05T03:32:08;10.43;;;5.42;;
2884;SDS011;54691;48.262;11.586;2023-06-05T03:39:07;13.83;;;5.55;;
2884;SDS011;54691;48.262;11.586;2023-06-05T03:46:05;13.03;;;5.40;;
2884;SDS011;54691;48.262;11.586;2023-06-05T03:53:03;9.53;;;5.25;;
2884;SDS011;54691;48.262;11.586;2023-06-05T04:00:06;13.35;;;6.10;;
2884;SDS011;54691;48.262;11.586;2023-06-05T04:07:06;24.60;;;7.60;;
2884;SDS011;54691;48.262;11.586;2023-06-05T04:14:03;10.23;;;5.92;;
2884;SDS011;54691;48.262;11.586;2023-06-05T04:21:00;9.78;;;6.28;;
2884;SDS011;54691;48.262;11.586;2023-06-05T04:27:58;11.97;;;6.28;;
2884;SDS011;54691;48.262;11.586;2023-06-05T04:34:55;14.03;;;6.20;;
2884;SDS011;54691;48.262;11.586;2023-06-05T04:41:52;15.83;;;5.62;;
2884;SDS011;54691;48.262;11.586;2023-06-05T04:48:49;11.00;;;5.53;;
2884;SDS011;54691;48.262;11.586;2023-06-05T04:55:51;9.80;;;5.47;;
2884;SDS011;54691;48.262;11.586;2023-06-05T05:02:48;10.85;;;5.20;;
2884;SDS011;54691;48.262;11.586;2023-06-05T05:09:47;11.43;;;6.33;;
2884;SDS011;54691;48.262;11.586;2023-06-05T05:16:44;8.83;;;4.75;;
2884;SDS011;54691;48.262;11.586;2023-06-05T05:23:41;9.25;;;5.33;;
2884;SDS011;54691;48.262;11.586;2023-06-05T05:30:38;10.63;;;5.15;;
2884;SDS011;54691;48.262;11.586;2023-06-05T05:37:35;7.00;;;4.08;;
2884;SDS011;54691;48.262;11.586;2023-06-05T05:44:32;8.50;;;4.10;;
2884;SDS011;54691;48.262;11.586;2023-06-05T05:51:29;13.28;;;4.70;;
2884;SDS011;54691;48.262;11.586;2023-06-05T05:58:27;11.18;;;3.98;;
2884;SDS011;54691;48.262;11.586;2023-06-05T06:05:25;9.60;;;4.65;;
2884;SDS011;54691;48.262;11.586;2023-06-05T06:12:22;6.95;;;4.28;;
2884;SDS011;54691;48.262;11.586;2023-06-05T06:19:19;6.78;;;3.75;;
2884;SDS011;54691;48.262;11.586;2023-06-05T06:26:18;8.63;;;5.08;;
2884;SDS011;54691;48.262;11.586;2023-06-05T06:33:16;11.48;;;4.78;;
2884;SDS011;54691;48.262;11.586;2023-06-05T06:40:14;7.37;;;4.33;;
2884;SDS011;54691;48.262;11.586;2023-06-05T06:47:11;10.50;;;4.50;;
2884;SDS011;54691;48.262;11.586;2023-06-05T06:54:08;12.58;;;4.70;;
2884;SDS011;54691;48.262;11.586;2023-06-05T07:01:05;13.95;;;4.78;;
2884;SDS011;54691;48.262;11.586;2023-06-05T07:08:02;10.78;;;4.75;;
2884;SDS011;54691;48.262;11.586;2023-06-05T07:15:03;11.73;;;4.70;;
2884;SDS011;54691;48.262;11.586;2023-06-05T07:22:01;10.40;;;4.80;;
2884;SDS011;54691;48.262;11.586;2023-06-05T07:29:00;9.45;;;4.67;;
2884;SDS011;54691;48.262;11.586;2023-06-05T07:36:03;8.18;;;4.42;;
2884;SDS011;54691;48.262;11.586;2023-06-05T07:42:58;7.70;;;4.60;;
2884;SDS011;54691;48.262;11.586;2023-06-05T07:49:59;10.20;;;4.30;;
2884;SDS011;54691;48.262;11.586;2023-06-05T07:56:56;5.00;;;3.10;;
2884;SDS011;54691;48.262;11.586;2023-06-05T08:03:54;11.10;;;4.45;;
2884;SDS011;54691;48.262;11.586;2023-06-05T08:10:52;8.38;;;3.92;;
2884;SDS011;54691;48.262;11.586;2023-06-05T08:17:49;9.60;;;4.78;;
2884;SDS011;54691;48.262;11.586;2023-06-05T08:24:46;12.18;;;4.60;;
2884;SDS011;54691;48.262;11.586;2023-06-05T08:31:44;4.97;;;3.50;;
2884;SDS011;54691;48.262;11.586;2023-06-05T08:38:41;10.05;;;3.75;;
2884;SDS011;54691;48.262;11.586;2023-06-05T08:45:39;6.62;;;3.45;;
2884;SDS011;54691;48.262;11.586;2023-06-05T08:52:37;12.85;;;4.33;;
2884;SDS011;54691;48.262;11.586;2023-06-05T08:59:35;5.90;;;4.35;;
2884;SDS011;54691;48.262;11.586;2023-06-05T09:06:33;5.85;;;3.70;;
2884;SDS011;54691;48.262;11.586;2023-06-05T09:13:44;7.40;;;3.77;;
2884;SDS011;54691;48.262;11.586;2023-06-05T09:20:31;8.93;;;4.00;;
2884;SDS011;54691;48.262;11.586;2023-06-05T09:27:32;10.35;;;4.03;;
2884;SDS011;54691;48.262;11.586;2023-06-05T09:41:30;9.60;;;4.10;;
2884;SDS011;54691;48.262;11.586;2023-06-05T09:48:29;11.30;;;4.58;;
2884;SDS011;54691;48.262;11.586;2023-06-05T09:55:30;7.37;;;3.80;;
2884;SDS011;54691;48.262;11.586;2023-06-05T10:02:31;10.43;;;3.77;;
2884;SDS011;54691;48.262;11.586;2023-06-05T10:09:30;8.65;;;4.28;;
2884;SDS011;54691;48.262;11.586;2023-06-05T10:16:30;9.83;;;4.65;;
2884;SDS011;54691;48.262;11.586;2023-06-05T10:23:29;11.85;;;4.10;;
2884;SDS011;54691;48.262;11.586;2023-06-05T10:34:12;7.33;;;4.28;;
2884;SDS011;54691;48.262;11.586;2023-06-05T10:37:44;11.87;;;5.00;;
2884;SDS011;54691;48.262;11.586;2023-06-05T10:44:41;9.45;;;4.42;;
2884;SDS011;54691;48.262;11.586;2023-06-05T10:55:12;9.53;;;3.72;;
2884;SDS011;54691;48.262;11.586;2023-06-05T11:09:13;7.47;;;3.98;;
2884;SDS011;54691;48.262;11.586;2023-06-05T11:16:24;5.55;;;3.67;;
2884;SDS011;54691;48.262;11.586;2023-06-05T11:23:08;13.43;;;4.20;;
2884;SDS011;54691;48.262;11.586;2023-06-05T11:30:11;5.70;;;3.87;;
2884;SDS011;54691;48.262;11.586;2023-06-05T11:37:14;5.10;;;3.65;;
2884;SDS011;54691;48.262;11.586;2023-06-05T11:40:45;7.03;;;4.03;;
2884;SDS011;54691;48.262;11.586;2023-06-05T11:47:42;8.38;;;3.80;;
2884;SDS011;54691;48.262;11.586;2023-06-05T11:54:40;9.50;;;3.60;;
2884;SDS011;54691;48.262;11.586;2023-06-05T12:01:38;5.40;;;3.65;;
2884;SDS011;54691;48.262;11.586;2023-06-05T12:08:37;4.65;;;3.60;;
2884;SDS011;54691;48.262;11.586;2023-06-05T12:15:34;8.15;;;3.70;;
2884;SDS011;54691;48.262;11.586;2023-06-05T12:22:35;8.33;;;3.12;;
2884;SDS011;54691;48.262;11.586;2023-06-05T12:29:33;4.22;;;2.90;;
2884;SDS011;54691;48.262;11.586;2023-06-05T12:36:31;5.75;;;2.77;;
2884;SDS011;54691;48.262;11.586;2023-06-05T12:43:28;9.38;;;2.50;;
2884;SDS011;54691;48.262;11.586;2023-06-05T12:50:28;7.65;;;3.10;;
2884;SDS011;54691;48.262;11.586;2023-06-05T12:57:25;9.03;;;3.30;;
2884;SDS011;54691;48.262;11.586;2023-06-05T13:04:22;5.58;;;3.00;;
2884;SDS011;54691;48.262;11.586;2023-06-05T13:11:21;6.87;;;2.75;;
2884;SDS011;54691;48.262;11.586;2023-06-05T13:18:18;4.95;;;2.45;;
2884;SDS011;54691;48.262;11.586;2023-06-05T13:25:17;6.83;;;2.35;;
2884;SDS011;54691;48.262;11.586;2023-06-05T13:32:15;3.33;;;2.30;;
2884;SDS011;54691;48.262;11.586;2023-06-05T13:39:14;9.65;;;2.50;;
2884;SDS011;54691;48.262;11.586;2023-06-05T13:46:11;4.33;;;2.30;;
2884;SDS011;54691;48.262;11.586;2023-06-05T13:53:11;5.87;;;2.47;;
2884;SDS011;54691;48.262;11.586;2023-06-05T14:00:08;5.78;;;2.10;;
2884;SDS011;54691;48.262;11.586;2023-06-05T14:07:05;3.40;;;2.45;;
2884;SDS011;54691;48.262;11.586;2023-06-05T14:14:03;2.55;;;1.90;;
2884;SDS011;54691;48.262;11.586;2023-06-05T14:21:01;3.05;;;1.80;;
2884;SDS011;54691;48.262;11.586;2023-06-05T14:27:58;4.37;;;1.82;;
2884;SDS011;54691;48.262;11.586;2023-06-05T14:34:55;3.75;;;1.65;;
2884;SDS011;54691;48.262;11.586;2023-06-05T14:41:53;2.87;;;1.77;;
2884;SDS011;54691;48.262;11.586;2023-06-05T14:48:50;4.85;;;1.80;;
2884;SDS011;54691;48.262;11.586;2023-06-05T14:55:47;7.35;;;1.50;;
2884;SDS011;54691;48.262;11.586;2023-06-05T15:02:44;3.37;;;1.52;;
2884;SDS011;54691;48.262;11.586;2023-06-05T15:09:42;2.15;;;1.45;;
2884;SDS011;54691;48.262;11.586;2023-06-05T15:16:39;3.15;;;2.02;;
2884;SDS011;54691;48.262;11.586;2023-06-05T15:23:36;4.72;;;1.52;;
2884;SDS011;54691;48.262;11.586;2023-06-05T15:30:33;10.82;;;1.65;;
2884;SDS011;54691;48.262;11.586;2023-06-05T15:37:30;2.92;;;1.40;;
2884;SDS011;54691;48.262;11.586;2023-06-05T15:44:28;4.15;;;1.47;;
2884;SDS011;54691;48.262;11.586;2023-06-05T15:51:25;4.12;;;1.55;;
2884;SDS011;54691;48.262;11.586;2023-06-05T15:58:23;5.67;;;1.90;;
2884;SDS011;54691;48.262;11.586;2023-06-05T16:05:20;4.28;;;1.95;;
2884;SDS011;54691;48.262;11.586;2023-06-05T16:12:18;5.20;;;1.75;;
2884;SDS011;54691;48.262;11.586;2023-06-05T16:19:15;3.80;;;2.10;;
2884;SDS011;54691;48.262;11.586;2023-06-05T16:26:12;2.72;;;1.87;;
2884;SDS011;54691;48.262;11.586;2023-06-05T16:33:09;3.98;;;1.95;;
2884;SDS011;54691;48.262;11.586;2023-06-05T16:36:49;7.77;;;2.17;;
2884;SDS011;54691;48.262;11.586;2023-06-05T16:43:46;6.25;;;2.10;;
2884;SDS011;54691;48.262;11.586;2023-06-05T16:50:43;3.20;;;2.30;;
2884;SDS011;54691;48.262;11.586;2023-06-05T16:57:42;8.70;;;2.90;;
2884;SDS011;54691;48.262;11.586;2023-06-05T17:04:41;6.25;;;2.08;;
2884;SDS011;54691;48.262;11.586;2023-06-05T17:11:38;6.05;;;2.27;;
2884;SDS011;54691;48.262;11.586;2023-06-05T17:18:36;4.12;;;2.33;;
2884;SDS011;54691;48.262;11.586;2023-06-05T17:25:33;4.42;;;2.70;;
2884;SDS011;54691;48.262;11.586;2023-06-05T17:32:30;3.67;;;2.52;;
2884;SDS011;54691;48.262;11.586;2023-06-05T17:39:27;3.50;;;2.52;;
2884;SDS011;54691;48.262;11.586;2023-06-05T17:46:24;7.92;;;3.35;;
2884;SDS011;54691;48.262;11.586;2023-06-05T17:53:22;5.08;;;3.47;;
2884;SDS011;54691;48.262;11.586;2023-06-05T18:00:19;6.95;;;3.10;;
2884;SDS011;54691;48.262;11.586;2023-06-05T18:07:16;3.98;;;3.33;;
2884;SDS011;54691;48.262;11.586;2023-06-05T18:14:15;5.55;;;3.52;;
2884;SDS011;54691;48.262;11.586;2023-06-05T18:21:13;11.85;;;3.80;;
2884;SDS011;54691;48.262;11.586;2023-06-05T18:28:10;5.87;;;3.15;;
2884;SDS011;54691;48.262;11.586;2023-06-05T18:35:09;9.70;;;3.80;;
2884;SDS011;54691;48.262;11.586;2023-06-05T18:42:07;9.00;;;4.67;;
2884;SDS011;54691;48.262;11.586;2023-06-05T18:49:05;7.62;;;4.28;;
2884;SDS011;54691;48.262;11.586;2023-06-05T18:56:02;9.53;;;4.78;;
2884;SDS011;54691;48.262;11.586;2023-06-05T19:02:59;6.58;;;4.50;;
2884;SDS011;54691;48.262;11.586;2023-06-05T19:09:58;6.97;;;4.60;;
2884;SDS011;54691;48.262;11.586;2023-06-05T19:16:57;9.95;;;5.22;;
2884;SDS011;54691;48.262;11.586;2023-06-05T19:23:54;5.72;;;4.90;;
2884;SDS011;54691;48.262;11.586;2023-06-05T19:30:51;6.37;;;4.78;;
2884;SDS011;54691;48.262;11.586;2023-06-05T19:37:48;9.08;;;6.12;;
2884;SDS011;54691;48.262;11.586;2023-06-05T19:44:46;7.22;;;5.75;;
2884;SDS011;54691;48.262;11.586;2023-06-05T19:51:44;6.80;;;5.25;;
2884;SDS011;54691;48.262;11.586;2023-06-05T19:58:41;6.95;;;5.33;;
2884;SDS011;54691;48.262;11.586;2023-06-05T20:05:38;10.68;;;5.05;;
2884;SDS011;54691;48.262;11.586;2023-06-05T20:12:35;8.40;;;4.65;;
2884;SDS011;54691;48.262;11.586;2023-06-05T20:19:32;7.65;;;4.67;;
2884;SDS011;54691;48.262;11.586;2023-06-05T20:26:29;8.35;;;4.95;;
2884;SDS011;54691;48.262;11.586;2023-06-05T20:33:26;7.97;;;6.33;;
2884;SDS011;54691;48.262;11.586;2023-06-05T20:40:23;9.38;;;5.80;;
2884;SDS011;54691;48.262;11.586;2023-06-05T20:47:22;9.88;;;5.70;;
2884;SDS011;54691;48.262;11.586;2023-06-05T20:54:19;10.45;;;7.20;;
2884;SDS011;54691;48.262;11.586;2023-06-05T21:01:17;11.55;;;8.08;;
2884;SDS011;54691;48.262;11.586;2023-06-05T21:08:15;13.05;;;8.43;;
2884;SDS011;54691;48.262;11.586;2023-06-05T21:15:13;12.37;;;8.85;;
2884;SDS011;54691;48.262;11.586;2023-06-05T21:22:10;14.40;;;9.83;;
2884;SDS011;54691;48.262;11.586;2023-06-05T21:29:07;11.63;;;8.30;;
2884;SDS011;54691;48.262;11.586;2023-06-05T21:36:04;13.08;;;8.90;;
2884;SDS011;54691;48.262;11.586;2023-06-05T21:43:01;17.52;;;10.65;;
2884;SDS011;54691;48.262;11.586;2023-06-05T21:49:58;15.68;;;10.78;;
2884;SDS011;54691;48.262;11.586;2023-06-05T21:56:55;14.10;;;9.43;;
2884;SDS011;54691;48.262;11.586;2023-06-05T22:03:54;15.28;;;8.50;;
2884;SDS011;54691;48.262;11.586;2023-06-05T22:10:53;14.93;;;8.08;;
2884;SDS011;54691;48.262;11.586;2023-06-05T22:17:52;12.95;;;8.40;;
2884;SDS011;54691;48.262;11.586;2023-06-05T22:24:51;11.25;;;6.92;;
2884;SDS011;54691;48.262;11.586;2023-06-05T22:31:48;7.45;;;5.83;;
2884;SDS011;54691;48.262;11.586;2023-06-05T22:38:45;7.00;;;5.75;;
2884;SDS011;54691;48.262;11.586;2023-06-05T22:45:42;11.00;;;7.15;;
2884;SDS011;54691;48.262;11.586;2023-06-05T22:52:40;8.68;;;6.00;;
2884;SDS011;54691;48.262;11.586;2023-06-05T22:59:38;9.88;;;7.22;;
2884;SDS011;54691;48.262;11.586;2023-06-05T23:06:36;9.98;;;7.40;;
2884;SDS011;54691;48.262;11.586;2023-06-05T23:13:35;12.40;;;8.63;;
2884;SDS011;54691;48.262;11.586;2023-06-05T23:20:32;11.38;;;8.18;;
2884;SDS011;54691;48.262;11.586;2023-06-05T23:27:29;14.03;;;8.98;;
2884;SDS011;54691;48.262;11.586;2023-06-05T23:34:26;13.13;;;8.85;;
2884;SDS011;54691;48.262;11.586;2023-06-05T23:41:23;12.88;;;8.40;;
2884;SDS011;54691;48.262;11.586;2023-06-05T23:48:21;12.40;;;8.98;;
2884;SDS011;54691;48.262;11.586;2023-06-05T23:55:18;16.35;;;9.28;;
